Time;durP1;ratioP1;P1;durP2;ratioP2;P2;SDS_P1;SDS_P2;PMS_P1;PMS_P2;Temp;Humidity;BMP_temperature;BMP_pressure;BME280_temperature;BME280_humidity;BME280_pressure;Samples;Min_cycle;Max_cycle;Signal;HPM_P1;HPM_P2
2022/12/14 00:01:17;;;;;;;46.17;36.35;;;26.20;95.40;;;;;;4982898;28;20033;-54
2022/12/14 00:03:44;;;;;;;36.15;31.60;;;26.20;95.50;;;;;;4983562;28;20038;-56
2022/12/14 00:06:18;;;;;;;33.60;26.77;;;26.20;95.60;;;;;;4978339;28;20031;-51
2022/12/14 00:08:46;;;;;;;32.30;28.33;;;26.20;95.10;;;;;;4967552;28;20046;-53
2022/12/14 00:11:21;;;;;;;28.33;25.55;;;26.20;95.20;;;;;;4963653;28;20311;-53
2022/12/14 00:13:52;;;;;;;21.90;19.52;;;26.10;95.30;;;;;;4979982;28;20023;-53
2022/12/14 00:16:19;;;;;;;17.85;15.85;;;26.10;94.70;;;;;;4975071;28;20022;-54
2022/12/14 00:18:51;;;;;;;19.67;15.20;;;26.10;94.60;;;;;;4982670;28;20019;-52
2022/12/14 00:21:18;;;;;;;14.00;12.77;;;26.00;94.30;;;;;;4965839;28;20091;-53
2022/12/14 00:23:46;;;;;;;15.10;13.52;;;26.00;94.20;;;;;;4970401;28;20030;-55
2022/12/14 00:26:19;;;;;;;15.50;13.55;;;26.00;94.20;;;;;;4973462;28;20015;-54
2022/12/14 00:28:47;;;;;;;14.73;13.20;;;26.10;94.20;;;;;;4979716;28;20438;-55
2022/12/14 00:31:15;;;;;;;15.57;13.23;;;26.10;94.10;;;;;;4964719;28;20283;-53
2022/12/14 00:33:42;;;;;;;14.85;11.93;;;26.20;93.90;;;;;;4964723;28;20042;-54
2022/12/14 00:36:11;;;;;;;17.45;11.60;;;26.30;93.80;;;;;;4964898;28;20043;-51
2022/12/14 00:38:38;;;;;;;13.95;12.45;;;26.30;93.70;;;;;;4963646;28;20303;-52
2022/12/14 00:41:05;;;;;;;15.32;12.00;;;26.40;93.60;;;;;;4977623;28;20334;-52
2022/12/14 00:43:34;;;;;;;13.32;11.50;;;26.40;93.70;;;;;;4984122;28;20018;-52
2022/12/14 00:46:01;;;;;;;16.33;11.85;;;26.40;93.40;;;;;;4983585;28;20166;-52
2022/12/14 00:48:27;;;;;;;12.52;11.07;;;26.50;93.30;;;;;;4971780;28;20066;-56
2022/12/14 00:50:55;;;;;;;14.05;10.57;;;26.40;93.20;;;;;;4965348;28;20042;-53
2022/12/14 00:53:25;;;;;;;14.60;10.02;;;26.50;93.10;;;;;;4984552;28;20245;-55
2022/12/14 00:55:55;;;;;;;22.30;10.15;;;26.50;92.90;;;;;;4995972;28;20323;-59
2022/12/14 00:58:25;;;;;;;14.05;9.48;;;26.50;92.90;;;;;;4971437;28;20046;-52
2022/12/14 01:01:13;;;;;;;11.65;9.90;;;26.50;92.80;;;;;;4964502;29;20303;-53
2022/12/14 01:03:40;;;;;;;13.18;10.38;;;26.60;92.60;;;;;;4962786;28;20031;-53
2022/12/14 01:06:15;;;;;;;13.45;9.95;;;26.50;92.60;;;;;;4964531;28;20069;-52
2022/12/14 01:08:45;;;;;;;17.50;12.88;;;26.50;92.40;;;;;;4964707;29;20038;-52
2022/12/14 01:11:12;;;;;;;27.58;21.70;;;26.60;92.30;;;;;;4964219;28;20027;-53
2022/12/14 01:13:40;;;;;;;23.20;16.00;;;26.60;92.30;;;;;;4964635;28;20023;-50
2022/12/14 01:16:11;;;;;;;18.48;12.95;;;26.60;91.80;;;;;;4967565;28;20035;-53
2022/12/14 01:18:40;;;;;;;17.02;11.13;;;26.50;91.80;;;;;;4970839;28;20031;-52
2022/12/14 01:21:13;;;;;;;22.00;10.45;;;26.50;91.60;;;;;;4964226;28;20043;-52
2022/12/14 01:23:40;;;;;;;17.25;10.00;;;26.50;91.60;;;;;;4964484;28;20307;-54
2022/12/14 01:26:07;;;;;;;18.25;9.82;;;26.50;91.40;;;;;;4963086;29;20039;-54
2022/12/14 01:28:34;;;;;;;31.13;10.88;;;26.50;91.40;;;;;;4968341;28;20278;-56
2022/12/14 01:31:21;;;;;;;27.23;10.27;;;26.50;91.40;;;;;;4971721;28;20023;-51
2022/12/14 01:33:48;;;;;;;15.13;8.75;;;26.50;91.40;;;;;;4964176;28;20031;-51
2022/12/14 01:36:17;;;;;;;16.42;8.30;;;26.50;91.40;;;;;;4971928;28;20023;-55
2022/12/14 01:38:44;;;;;;;18.40;8.15;;;26.50;91.40;;;;;;4966879;28;20043;-52
2022/12/14 01:41:33;;;;;;;13.55;7.85;;;26.50;91.40;;;;;;4963816;29;20078;-52
2022/12/14 01:44:23;;;;;;;18.95;7.85;;;26.50;91.30;;;;;;4963801;28;20260;-57
2022/12/14 01:47:04;;;;;;;13.50;7.35;;;26.50;91.30;;;;;;5001218;28;20100;-51
2022/12/14 01:49:36;;;;;;;9.95;7.35;;;26.40;91.30;;;;;;4983142;28;20364;-53
2022/12/14 01:52:05;;;;;;;;;;;26.40;91.20;;;;;;4983519;28;20035;-53
2022/12/14 01:54:40;;;;;;;7.55;6.80;;;26.40;91.20;;;;;;4983487;28;19953;-54
2022/12/14 01:57:08;;;;;;;8.77;6.90;;;26.40;91.20;;;;;;4982617;28;20019;-51
2022/12/14 01:59:38;;;;;;;11.57;7.10;;;26.40;91.10;;;;;;4975133;28;20101;-52
2022/12/14 02:02:09;;;;;;;12.75;6.70;;;26.40;91.00;;;;;;4975753;28;20263;-53
2022/12/14 02:04:41;;;;;;;7.43;6.57;;;26.40;91.00;;;;;;4966230;28;20035;-52
2022/12/14 02:07:08;;;;;;;8.02;7.13;;;26.40;90.90;;;;;;4971504;28;20031;-54
2022/12/14 02:09:38;;;;;;;7.32;6.53;;;26.40;90.90;;;;;;4969538;28;20125;-54
2022/12/14 02:12:20;;;;;;;9.13;6.28;;;26.30;90.90;;;;;;4970113;28;20672;-58
2022/12/14 02:14:47;;;;;;;11.43;6.60;;;26.30;90.80;;;;;;5010347;28;20027;-52
2022/12/14 02:17:16;;;;;;;9.35;6.63;;;26.30;90.80;;;;;;5007309;28;20274;-53
2022/12/14 02:19:45;;;;;;;13.88;6.70;;;26.30;90.80;;;;;;4971083;28;20201;-56
2022/12/14 02:22:42;;;;;;;8.82;6.50;;;26.30;90.70;;;;;;4978429;28;20031;-53
2022/12/14 02:25:49;;;;;;;10.20;6.60;;;26.30;90.60;;;;;;4979225;28;20047;-54
2022/12/14 02:28:35;;;;;;;10.45;7.10;;;26.30;90.60;;;;;;4980298;28;20066;-55
2022/12/14 02:31:40;;;;;;;9.18;7.38;;;26.30;90.60;;;;;;4944467;28;20106;-53
2022/12/14 02:34:28;;;;;;;9.70;6.97;;;26.30;90.60;;;;;;4944706;28;20089;-51
2022/12/14 02:37:09;;;;;;;9.35;7.45;;;26.30;90.60;;;;;;4963257;29;20027;-53
2022/12/14 02:39:51;;;;;;;9.80;7.97;;;26.20;90.60;;;;;;4963344;29;20035;-53
2022/12/14 02:42:30;;;;;;;11.40;8.18;;;26.20;90.70;;;;;;4961914;28;20319;-52
2022/12/14 02:45:19;;;;;;;9.32;7.53;;;26.20;90.70;;;;;;4963346;29;20041;-50
2022/12/14 02:48:18;;;;;;;7.50;6.65;;;26.20;90.70;;;;;;4963017;29;20031;-55
2022/12/14 02:50:51;;;;;;;8.55;6.93;;;26.20;90.70;;;;;;4941205;29;20210;-52
2022/12/14 02:53:30;;;;;;;8.60;6.30;;;26.20;90.70;;;;;;4973679;28;20035;-52
2022/12/14 02:56:03;;;;;;;8.68;6.28;;;26.20;90.70;;;;;;4962966;28;20085;-54
2022/12/14 02:58:49;;;;;;;9.30;5.55;;;26.20;90.60;;;;;;4962766;29;20051;-51
2022/12/14 03:01:23;;;;;;;8.50;6.15;;;26.20;90.60;;;;;;4967736;28;20030;-51
2022/12/14 03:03:51;;;;;;;7.65;6.13;;;26.10;90.50;;;;;;4971822;28;20295;-53
2022/12/14 03:06:27;;;;;;;5.82;5.30;;;26.10;90.50;;;;;;4971501;28;20262;-51
2022/12/14 03:09:14;;;;;;;6.03;5.40;;;26.10;90.40;;;;;;4963595;28;21606;-51
2022/12/14 03:12:00;;;;;;;6.07;5.47;;;26.20;90.40;;;;;;4974774;28;20042;-52
2022/12/14 03:14:35;;;;;;;7.82;5.45;;;26.10;90.40;;;;;;4966605;29;20110;-53
2022/12/14 03:17:13;;;;;;;9.73;5.50;;;26.10;90.50;;;;;;4965814;29;20031;-52
2022/12/14 03:19:54;;;;;;;6.65;6.00;;;26.10;90.50;;;;;;4966628;28;20031;-53
2022/12/14 03:22:27;;;;;;;7.47;5.75;;;26.10;90.40;;;;;;4977291;28;20087;-51
2022/12/14 03:25:01;;;;;;;7.05;5.88;;;26.10;90.50;;;;;;4972757;28;20046;-53
2022/12/14 03:28:00;;;;;;;9.98;5.90;;;26.10;90.50;;;;;;4976994;28;20043;-53
2022/12/14 03:30:28;;;;;;;9.20;6.20;;;26.10;90.60;;;;;;4972211;28;20046;-55
2022/12/14 03:33:01;;;;;;;7.78;6.97;;;26.10;90.60;;;;;;4976216;28;20051;-53
2022/12/14 03:35:29;;;;;;;8.15;6.97;;;26.10;90.60;;;;;;4976969;28;20080;-52
2022/12/14 03:38:15;;;;;;;10.02;6.88;;;26.10;90.60;;;;;;4976938;28;20038;-51
2022/12/14 03:41:11;;;;;;;7.22;6.20;;;26.00;90.60;;;;;;4975697;28;20027;-51
2022/12/14 03:43:51;;;;;;;7.20;6.13;;;26.00;90.50;;;;;;4976549;28;20031;-56
2022/12/14 03:46:50;;;;;;;8.27;5.90;;;26.00;90.50;;;;;;4973493;28;20113;-53
2022/12/14 03:49:33;;;;;;;6.80;5.35;;;26.00;90.50;;;;;;4969916;28;20097;-51
2022/12/14 03:52:11;;;;;;;6.35;5.45;;;26.00;90.50;;;;;;4971759;28;20027;-54
2022/12/14 03:54:53;;;;;;;8.32;5.55;;;26.00;90.50;;;;;;4978735;28;20079;-50
2022/12/14 03:57:27;;;;;;;8.07;5.65;;;26.00;90.50;;;;;;4965416;28;20260;-52
2022/12/14 04:00:03;;;;;;;7.18;5.55;;;26.00;90.40;;;;;;4965855;29;20082;-55
2022/12/14 04:03:02;;;;;;;6.88;5.35;;;26.00;90.30;;;;;;4965489;29;20041;-51
2022/12/14 04:05:45;;;;;;;7.00;5.30;;;26.00;90.30;;;;;;4966459;28;20087;-51
2022/12/14 04:08:30;;;;;;;5.93;5.30;;;26.00;90.30;;;;;;4970001;28;20338;-51
2022/12/14 04:20:05;;;;;;;7.30;5.93;;;26.00;90.20;;;;;;4965109;29;20126;-51
2022/12/14 04:22:37;;;;;;;7.75;5.47;;;26.00;90.20;;;;;;4970922;28;20072;-52
2022/12/14 04:28:08;;;;;;;10.23;6.15;;;26.00;90.20;;;;;;4964981;28;20046;-52
2022/12/14 04:30:38;;;;;;;7.93;5.97;;;25.90;90.30;;;;;;4967076;28;20057;-52
2022/12/14 04:35:57;;;;;;;8.25;6.20;;;25.90;90.30;;;;;;4975477;28;20022;-52
2022/12/14 04:38:32;;;;;;;7.63;6.38;;;25.90;90.30;;;;;;4973351;28;20054;-53
2022/12/14 04:41:05;;;;;;;6.65;5.90;;;25.90;90.30;;;;;;4973282;28;20034;-52
2022/12/14 04:43:37;;;;;;;7.05;5.45;;;25.90;90.30;;;;;;4978336;28;20035;-54
2022/12/14 04:46:08;;;;;;;6.20;5.60;;;25.90;90.30;;;;;;4979863;28;20392;-53
2022/12/14 04:48:57;;;;;;;7.38;5.25;;;25.90;90.30;;;;;;4975218;28;20049;-53
2022/12/14 04:51:37;;;;;;;6.60;5.47;;;26.00;90.30;;;;;;4971589;28;20078;-53
2022/12/14 04:54:30;;;;;;;5.53;5.03;;;25.90;90.40;;;;;;4973332;28;20043;-52
2022/12/14 04:57:20;;;;;;;6.20;5.15;;;25.90;90.40;;;;;;4964593;28;20039;-54
2022/12/14 04:59:48;;;;;;;6.05;5.45;;;26.00;90.40;;;;;;4964667;29;20037;-53
2022/12/14 05:02:32;;;;;;;5.53;5.00;;;25.90;90.40;;;;;;4964650;28;20031;-53
2022/12/14 05:05:07;;;;;;;5.72;4.90;;;25.90;90.30;;;;;;4973013;28;20046;-53
2022/12/14 05:07:57;;;;;;;6.13;5.35;;;25.90;90.40;;;;;;4974931;28;20031;-53
2022/12/14 05:10:34;;;;;;;6.93;4.90;;;25.90;90.30;;;;;;4964268;29;20261;-56
2022/12/14 05:13:13;;;;;;;10.45;4.90;;;25.90;90.30;;;;;;4964024;28;20081;-54
2022/12/14 05:15:50;;;;;;;15.13;5.18;;;25.90;90.30;;;;;;4970061;28;20034;-54
2022/12/14 05:18:17;;;;;;;7.72;4.85;;;25.90;90.30;;;;;;4972827;28;20077;-57
2022/12/14 05:20:45;;;;;;;5.60;4.50;;;25.90;90.30;;;;;;4964163;29;20035;-54
2022/12/14 05:23:12;;;;;;;5.95;4.60;;;25.90;90.20;;;;;;4973102;28;20034;-53
2022/12/14 05:25:38;;;;;;;12.00;5.05;;;25.90;90.20;;;;;;4975304;28;20026;-52
2022/12/14 05:28:05;;;;;;;12.70;4.38;;;25.90;90.10;;;;;;4980256;28;20035;-53
2022/12/14 05:30:32;;;;;;;6.75;4.85;;;25.90;90.20;;;;;;4963786;29;20027;-52
2022/12/14 05:32:58;;;;;;;4.90;4.50;;;25.90;90.20;;;;;;4964064;29;20031;-55
2022/12/14 05:35:25;;;;;;;6.45;4.68;;;25.90;90.20;;;;;;4963912;29;20086;-51
2022/12/14 05:37:51;;;;;;;5.93;4.90;;;25.90;90.20;;;;;;4964071;29;20020;-53
2022/12/14 05:40:18;;;;;;;4.93;4.35;;;25.90;90.20;;;;;;4964084;29;20334;-51
2022/12/14 05:42:44;;;;;;;5.63;4.53;;;25.90;90.20;;;;;;4963867;29;20215;-51
2022/12/14 05:45:12;;;;;;;9.05;4.60;;;25.90;90.20;;;;;;4972547;28;20031;-54
2022/12/14 05:47:38;;;;;;;8.85;4.70;;;25.90;90.10;;;;;;4974750;28;20078;-52
2022/12/14 05:50:06;;;;;;;8.82;4.85;;;25.90;90.00;;;;;;4972263;28;20033;-53
2022/12/14 05:52:33;;;;;;;6.93;4.40;;;26.00;90.00;;;;;;4975565;28;20031;-52
2022/12/14 05:54:59;;;;;;;9.02;4.97;;;25.90;90.10;;;;;;4964521;28;20062;-53
2022/12/14 05:57:26;;;;;;;7.40;5.05;;;25.90;90.10;;;;;;4963682;29;20130;-53
2022/12/14 05:59:52;;;;;;;6.32;4.75;;;25.90;90.00;;;;;;4964175;29;20039;-54
2022/12/14 06:02:19;;;;;;;5.55;4.95;;;25.90;90.00;;;;;;4968334;28;20024;-52
2022/12/14 06:04:45;;;;;;;5.53;4.95;;;25.90;90.00;;;;;;4976300;28;20057;-53
2022/12/14 06:07:12;;;;;;;5.80;5.03;;;25.90;89.90;;;;;;4969923;28;20027;-53
2022/12/14 06:09:38;;;;;;;5.38;4.88;;;25.90;89.90;;;;;;4970352;28;20046;-54
2022/12/14 06:12:05;;;;;;;6.40;5.00;;;25.90;89.90;;;;;;4971774;28;20034;-53
2022/12/14 06:14:32;;;;;;;5.97;4.68;;;25.90;89.90;;;;;;4983452;28;20255;-52
2022/12/14 06:16:59;;;;;;;6.57;5.00;;;25.90;90.00;;;;;;4982880;28;20057;-50
2022/12/14 06:19:25;;;;;;;6.32;5.00;;;25.90;90.00;;;;;;4983082;28;20088;-53
2022/12/14 06:21:52;;;;;;;5.45;4.78;;;25.90;90.00;;;;;;4983044;28;20054;-56
2022/12/14 06:24:18;;;;;;;5.93;5.28;;;25.90;90.00;;;;;;4982994;28;20299;-52
2022/12/14 06:26:45;;;;;;;5.47;4.82;;;25.90;90.00;;;;;;4982418;28;20023;-50
2022/12/14 06:29:15;;;;;;;6.65;4.65;;;25.90;90.10;;;;;;4981294;28;20035;-53
2022/12/14 06:31:42;;;;;;;5.38;4.72;;;25.90;90.10;;;;;;4971813;28;20076;-51
2022/12/14 06:34:09;;;;;;;6.47;4.82;;;25.90;90.20;;;;;;4974426;28;20035;-54
2022/12/14 06:36:38;;;;;;;5.22;4.65;;;25.90;90.10;;;;;;4979373;28;20197;-53
2022/12/14 06:39:09;;;;;;;5.40;4.70;;;25.90;90.20;;;;;;4977078;28;20049;-51
2022/12/14 06:41:36;;;;;;;5.65;4.90;;;25.90;90.20;;;;;;4980451;28;20034;-52
2022/12/14 06:44:04;;;;;;;7.78;5.03;;;25.90;90.20;;;;;;4981257;28;20018;-51
2022/12/14 06:46:31;;;;;;;6.40;4.70;;;25.90;90.20;;;;;;4971663;28;20066;-52
2022/12/14 06:48:58;;;;;;;7.60;4.95;;;25.90;90.20;;;;;;4972738;28;20054;-55
2022/12/14 06:51:24;;;;;;;5.95;4.65;;;25.90;90.20;;;;;;4971153;28;20082;-54
2022/12/14 06:53:56;;;;;;;6.00;5.00;;;25.90;90.20;;;;;;4972010;28;20050;-53
2022/12/14 06:56:25;;;;;;;5.93;5.32;;;25.90;90.30;;;;;;4974134;28;20065;-54
2022/12/14 06:58:54;;;;;;;6.93;5.10;;;25.90;90.30;;;;;;4967156;28;20085;-53
2022/12/14 07:01:22;;;;;;;9.98;5.03;;;25.90;90.30;;;;;;4962686;29;20031;-53
2022/12/14 07:03:52;;;;;;;5.88;5.05;;;25.90;90.30;;;;;;4962980;28;20053;-52
2022/12/14 07:06:19;;;;;;;5.95;4.82;;;25.90;90.30;;;;;;4962691;28;20077;-53
2022/12/14 07:08:46;;;;;;;5.55;4.80;;;25.90;90.30;;;;;;4962950;28;20303;-53
2022/12/14 07:11:14;;;;;;;8.88;4.97;;;25.80;90.30;;;;;;4969926;28;20049;-52
2022/12/14 07:13:41;;;;;;;7.95;5.10;;;25.90;90.30;;;;;;4975653;28;20027;-53
2022/12/14 07:16:30;;;;;;;5.78;5.00;;;25.80;90.30;;;;;;4962630;29;20042;-52
2022/12/14 07:18:57;;;;;;;8.48;5.60;;;25.80;90.30;;;;;;4962841;29;20046;-52
2022/12/14 07:21:24;;;;;;;7.07;4.97;;;25.90;90.40;;;;;;4962590;29;20090;-53
2022/12/14 07:23:52;;;;;;;7.60;4.95;;;25.80;90.40;;;;;;4962707;29;20094;-51
2022/12/14 07:26:24;;;;;;;7.68;4.75;;;25.80;90.40;;;;;;4965372;28;20294;-52
2022/12/14 07:28:52;;;;;;;5.03;4.53;;;25.80;90.40;;;;;;4973702;28;20033;-54
2022/12/14 07:31:22;;;;;;;5.47;4.82;;;25.80;90.40;;;;;;4972777;28;20032;-53
2022/12/14 07:33:50;;;;;;;8.43;5.28;;;25.80;90.40;;;;;;4973544;28;20027;-56
2022/12/14 07:36:19;;;;;;;5.45;4.60;;;25.80;90.40;;;;;;4981604;28;20361;-53
2022/12/14 07:38:47;;;;;;;8.32;4.97;;;25.80;90.40;;;;;;4981954;28;20058;-52
2022/12/14 07:41:29;;;;;;;5.57;4.55;;;25.80;90.40;;;;;;4981712;28;20061;-50
2022/12/14 07:43:57;;;;;;;5.70;5.07;;;25.80;90.40;;;;;;4978990;28;20069;-54
2022/12/14 07:46:25;;;;;;;6.43;4.72;;;25.80;90.40;;;;;;4971112;28;20051;-53
2022/12/14 07:48:54;;;;;;;5.72;5.13;;;25.80;90.40;;;;;;4962272;29;20037;-52
2022/12/14 07:51:23;;;;;;;10.27;5.28;;;25.80;90.40;;;;;;4962128;28;20024;-49
2022/12/14 07:53:51;;;;;;;6.35;4.90;;;25.90;90.40;;;;;;4962480;28;20027;-53
2022/12/14 07:56:21;;;;;;;8.23;4.90;;;25.90;90.40;;;;;;4963070;28;20215;-53
2022/12/14 07:58:48;;;;;;;5.40;4.90;;;25.80;90.30;;;;;;4965920;29;20043;-56
2022/12/14 08:01:16;;;;;;;5.63;4.97;;;25.90;90.40;;;;;;4965807;28;20315;-53
2022/12/14 08:03:48;;;;;;;5.50;4.70;;;25.80;90.30;;;;;;4965620;28;20032;-53
2022/12/14 08:06:17;;;;;;;5.32;4.82;;;25.90;90.40;;;;;;4976247;28;20033;-54
2022/12/14 08:08:44;;;;;;;6.65;5.38;;;25.80;90.40;;;;;;4976290;28;20035;-53
2022/12/14 08:11:11;;;;;;;5.22;4.68;;;25.80;90.50;;;;;;4965104;29;20098;-53
2022/12/14 08:13:38;;;;;;;5.70;5.10;;;25.80;90.50;;;;;;4965376;29;20031;-52
2022/12/14 08:16:10;;;;;;;6.90;5.60;;;25.90;90.60;;;;;;4965312;28;20049;-60
2022/12/14 08:18:36;;;;;;;6.20;4.88;;;25.80;90.60;;;;;;4965051;29;20024;-53
2022/12/14 08:21:05;;;;;;;7.95;5.18;;;25.90;90.70;;;;;;4965118;28;20338;-55
2022/12/14 08:23:32;;;;;;;5.80;5.20;;;25.90;90.70;;;;;;4965335;29;20043;-53
2022/12/14 08:25:59;;;;;;;6.35;4.97;;;25.90;90.80;;;;;;4969716;28;20286;-54
2022/12/14 08:28:28;;;;;;;7.95;5.30;;;25.80;90.80;;;;;;4976173;28;20051;-54
2022/12/14 08:30:55;;;;;;;6.80;5.60;;;25.90;90.80;;;;;;4984214;28;20038;-52
2022/12/14 08:33:22;;;;;;;5.70;5.20;;;25.80;90.80;;;;;;4984442;28;20066;-53
2022/12/14 08:35:49;;;;;;;8.45;5.28;;;25.80;90.80;;;;;;4984104;28;20027;-54
2022/12/14 08:38:15;;;;;;;6.35;5.68;;;25.90;90.80;;;;;;4984276;28;20351;-53
2022/12/14 08:40:42;;;;;;;7.07;5.75;;;25.90;90.70;;;;;;4984042;28;20146;-52
2022/12/14 08:43:09;;;;;;;6.68;5.50;;;25.90;90.80;;;;;;4977785;28;20066;-52
2022/12/14 08:45:36;;;;;;;5.80;5.30;;;25.90;90.80;;;;;;4977810;28;20030;-57
2022/12/14 08:48:03;;;;;;;6.00;5.20;;;25.80;90.80;;;;;;4967112;28;20043;-53
2022/12/14 08:50:31;;;;;;;6.55;5.20;;;25.80;90.70;;;;;;4964524;28;20062;-51
2022/12/14 08:52:57;;;;;;;6.88;5.25;;;25.80;91.00;;;;;;4964613;28;20027;-49
2022/12/14 08:55:24;;;;;;;6.40;5.70;;;25.80;90.80;;;;;;4964916;28;20028;-53
2022/12/14 08:57:50;;;;;;;6.93;5.28;;;25.90;90.80;;;;;;4964776;28;20027;-51
2022/12/14 09:00:17;;;;;;;6.30;5.00;;;25.90;90.80;;;;;;4964554;29;20023;-53
2022/12/14 09:02:45;;;;;;;6.53;5.70;;;25.80;90.70;;;;;;4964279;28;20035;-51
2022/12/14 09:05:11;;;;;;;6.07;5.57;;;25.80;90.80;;;;;;4964552;28;20027;-52
2022/12/14 09:07:38;;;;;;;6.18;5.55;;;25.80;90.80;;;;;;4964291;28;20043;-54
2022/12/14 09:10:06;;;;;;;7.40;5.55;;;25.80;90.80;;;;;;4964327;28;20374;-53
2022/12/14 09:12:34;;;;;;;8.48;5.43;;;25.90;90.90;;;;;;4964488;28;20027;-52
2022/12/14 09:15:01;;;;;;;7.03;5.50;;;25.80;90.90;;;;;;4964483;28;20188;-52
2022/12/14 09:17:27;;;;;;;6.10;5.35;;;25.90;91.00;;;;;;4964146;29;20027;-52
2022/12/14 09:19:54;;;;;;;6.50;5.90;;;25.90;91.10;;;;;;4964698;28;20334;-50
2022/12/14 09:22:20;;;;;;;5.68;5.18;;;25.80;91.20;;;;;;4964432;29;20027;-57
2022/12/14 09:24:48;;;;;;;6.50;5.72;;;25.90;91.30;;;;;;4964506;29;20090;-52
2022/12/14 09:27:15;;;;;;;7.68;5.88;;;25.90;91.40;;;;;;4964225;28;20034;-54
2022/12/14 09:29:42;;;;;;;7.20;5.35;;;25.90;91.40;;;;;;4964564;28;20035;-51
2022/12/14 09:32:09;;;;;;;6.22;5.15;;;25.90;91.40;;;;;;4963889;29;20098;-53
2022/12/14 09:34:36;;;;;;;9.13;5.75;;;25.90;91.50;;;;;;4964060;29;20028;-53
2022/12/14 09:37:06;;;;;;;7.10;5.50;;;25.90;91.50;;;;;;4966932;28;20026;-54
2022/12/14 09:39:33;;;;;;;6.28;5.65;;;25.90;91.60;;;;;;4975559;28;20303;-56
2022/12/14 09:42:12;;;;;;;6.03;5.32;;;25.90;91.70;;;;;;4971485;28;20023;-54
2022/12/14 09:45:09;;;;;;;7.95;5.95;;;25.90;91.90;;;;;;4964552;29;20031;-53
2022/12/14 09:47:45;;;;;;;6.20;5.32;;;25.90;92.00;;;;;;4963557;28;20055;-50
2022/12/14 09:50:21;;;;;;;6.40;5.25;;;25.90;92.00;;;;;;4964136;28;20361;-54
2022/12/14 09:53:12;;;;;;;6.30;5.70;;;25.80;92.00;;;;;;4964315;28;20188;-54
2022/12/14 09:55:43;;;;;;;8.93;5.70;;;25.80;92.00;;;;;;4963747;29;20023;-52
2022/12/14 09:58:21;;;;;;;7.13;5.90;;;25.80;91.90;;;;;;4963888;29;20023;-52
2022/12/14 10:00:58;;;;;;;6.65;5.70;;;25.80;91.80;;;;;;4963565;29;20267;-51
2022/12/14 10:03:59;;;;;;;8.23;5.65;;;25.80;91.80;;;;;;4963614;29;20081;-52
2022/12/14 10:06:33;;;;;;;6.13;5.53;;;25.80;91.70;;;;;;4967742;28;20106;-53
2022/12/14 10:09:37;;;;;;;8.73;6.07;;;25.80;91.70;;;;;;4976663;28;20035;-52
2022/12/14 10:12:03;;;;;;;7.93;5.45;;;25.80;91.80;;;;;;4961847;28;20039;-52
2022/12/14 10:15:00;;;;;;;6.35;5.55;;;25.80;91.80;;;;;;4963760;29;20214;-53
2022/12/14 10:17:33;;;;;;;6.35;5.75;;;25.80;92.10;;;;;;4956235;29;20221;-54
2022/12/14 10:20:22;;;;;;;12.05;6.18;;;25.90;92.00;;;;;;4962418;29;20320;-54
2022/12/14 10:22:54;;;;;;;11.55;6.95;;;25.80;92.10;;;;;;4963480;29;20039;-54
2022/12/14 10:25:30;;;;;;;10.00;7.05;;;25.80;92.40;;;;;;4963259;29;20027;-54
2022/12/14 10:28:03;;;;;;;10.65;6.80;;;25.80;92.60;;;;;;4963053;28;20039;-54
2022/12/14 10:30:30;;;;;;;9.90;7.72;;;25.70;92.80;;;;;;4963021;29;20023;-51
2022/12/14 10:33:30;;;;;;;11.30;7.63;;;25.70;93.10;;;;;;4963110;29;20035;-51
2022/12/14 10:36:29;;;;;;;12.55;7.30;;;25.70;93.30;;;;;;4963075;29;20240;-52
2022/12/14 10:39:01;;;;;;;11.65;7.47;;;25.70;93.60;;;;;;4963281;29;20243;-51
2022/12/14 10:41:44;;;;;;;17.00;7.75;;;25.70;93.60;;;;;;4962803;29;20023;-48
2022/12/14 10:44:27;;;;;;;;;;;25.70;93.70;;;;;;4972301;28;20035;-52
2022/12/14 10:46:53;;;;;;;12.10;7.00;;;25.70;93.80;;;;;;4969144;28;20201;-53
2022/12/14 10:49:56;;;;;;;13.63;6.93;;;25.60;93.90;;;;;;4967572;28;20039;-54
2022/12/14 10:52:27;;;;;;;9.05;6.50;;;25.60;94.00;;;;;;4962662;28;20342;-53
2022/12/14 10:55:02;;;;;;;9.57;6.85;;;25.60;94.00;;;;;;4963612;29;20044;-56
2022/12/14 10:57:29;;;;;;;7.60;6.10;;;25.50;94.10;;;;;;4962725;29;20365;-54
2022/12/14 10:59:56;;;;;;;8.15;6.40;;;25.50;94.20;;;;;;4965986;28;20046;-53
2022/12/14 11:02:29;;;;;;;6.75;6.10;;;25.50;94.20;;;;;;4971279;28;20030;-55
2022/12/14 11:05:15;;;;;;;6.68;5.95;;;25.50;94.20;;;;;;4963252;28;20039;-49
2022/12/14 11:07:44;;;;;;;7.68;5.22;;;25.50;94.30;;;;;;4962749;29;20030;-55
2022/12/14 11:10:29;;;;;;;7.57;6.05;;;25.50;94.30;;;;;;4965609;28;20387;-53
2022/12/14 11:12:58;;;;;;;7.30;5.57;;;25.50;94.30;;;;;;4968244;28;20031;-53
2022/12/14 11:15:34;;;;;;;5.93;5.32;;;25.60;94.40;;;;;;4973213;28;20031;-53
2022/12/14 11:18:29;;;;;;;6.00;5.40;;;25.60;94.30;;;;;;4973976;28;20063;-55
2022/12/14 11:20:57;;;;;;;7.30;4.97;;;25.60;94.30;;;;;;4971844;28;20042;-51
2022/12/14 11:23:37;;;;;;;8.98;5.55;;;25.60;94.20;;;;;;4971535;28;20027;-54
2022/12/14 11:26:22;;;;;;;5.50;4.97;;;25.60;94.20;;;;;;4971192;28;20054;-56
2022/12/14 11:28:56;;;;;;;6.10;5.50;;;25.60;94.20;;;;;;4965485;28;20216;-51
2022/12/14 11:31:44;;;;;;;5.50;4.95;;;25.60;94.20;;;;;;4965189;28;20106;-53
2022/12/14 11:34:33;;;;;;;5.43;4.90;;;25.60;94.20;;;;;;4966125;28;20234;-53
2022/12/14 11:37:21;;;;;;;5.43;4.93;;;25.60;94.20;;;;;;4972367;28;20037;-54
2022/12/14 11:40:04;;;;;;;7.97;4.85;;;25.60;94.20;;;;;;4971347;28;20063;-54
2022/12/14 11:42:31;;;;;;;5.68;5.18;;;25.60;94.20;;;;;;4969837;28;20228;-54
2022/12/14 11:45:32;;;;;;;5.47;4.82;;;25.70;94.20;;;;;;4973786;28;20032;-51
2022/12/14 11:48:14;;;;;;;5.60;5.15;;;25.70;94.20;;;;;;4964430;28;20047;-52
2022/12/14 11:50:47;;;;;;;5.53;5.00;;;25.70;94.10;;;;;;4965955;28;20030;-58
2022/12/14 11:53:22;;;;;;;5.57;5.07;;;25.70;94.10;;;;;;4973678;28;20050;-52
2022/12/14 11:55:56;;;;;;;5.53;5.03;;;25.70;94.10;;;;;;4982375;28;20031;-51
2022/12/14 11:58:52;;;;;;;5.90;5.30;;;25.70;94.10;;;;;;4970210;28;20031;-54
2022/12/14 12:01:26;;;;;;;4.88;4.47;;;25.70;94.00;;;;;;4963165;28;20055;-53
2022/12/14 12:03:57;;;;;;;5.50;4.75;;;25.70;94.00;;;;;;4965697;28;20035;-54
2022/12/14 12:06:30;;;;;;;5.60;5.10;;;25.70;94.00;;;;;;4973448;28;20011;-52
2022/12/14 12:09:01;;;;;;;5.07;4.65;;;25.70;94.00;;;;;;4967313;28;20270;-54
2022/12/14 12:11:33;;;;;;;7.32;5.40;;;25.80;93.90;;;;;;4965408;28;20069;-54
2022/12/14 12:14:03;;;;;;;6.30;5.05;;;25.80;93.90;;;;;;4965571;29;20224;-54
2022/12/14 12:16:31;;;;;;;6.07;4.97;;;25.80;93.90;;;;;;4965176;28;20023;-52
2022/12/14 12:19:04;;;;;;;6.35;5.20;;;25.80;93.80;;;;;;4965392;28;20039;-53
2022/12/14 12:21:31;;;;;;;;;;;25.90;93.70;;;;;;4965395;29;20035;-53
2022/12/14 12:24:19;;;;;;;5.80;5.18;;;25.90;93.60;;;;;;4965235;28;19956;-52
2022/12/14 12:26:59;;;;;;;6.55;5.60;;;25.90;93.70;;;;;;4974643;28;20331;-54
2022/12/14 12:29:49;;;;;;;5.78;5.15;;;25.90;93.70;;;;;;4965420;29;20167;-54
2022/12/14 12:32:36;;;;;;;5.32;4.82;;;25.90;93.70;;;;;;4965018;29;20067;-55
2022/12/14 12:35:36;;;;;;;5.32;4.82;;;25.90;93.60;;;;;;4963972;29;20320;-55
2022/12/14 12:38:29;;;;;;;6.25;5.10;;;25.90;93.60;;;;;;4975695;28;20039;-53
2022/12/14 12:41:11;;;;;;;5.82;4.85;;;26.00;93.60;;;;;;4971734;28;20243;-56
2022/12/14 12:43:46;;;;;;;5.38;4.88;;;26.00;93.60;;;;;;4975840;28;20066;-53
2022/12/14 12:46:20;;;;;;;7.32;4.35;;;26.00;93.60;;;;;;4964768;28;20043;-52
2022/12/14 12:48:52;;;;;;;5.38;4.30;;;26.00;93.50;;;;;;4964828;29;20227;-53
2022/12/14 12:51:23;;;;;;;6.18;5.57;;;26.00;93.60;;;;;;4964533;28;20027;-55
2022/12/14 12:54:05;;;;;;;5.40;4.72;;;26.00;93.60;;;;;;4974774;28;20039;-52
2022/12/14 12:56:43;;;;;;;5.88;4.75;;;26.10;93.70;;;;;;4972867;28;20055;-53
2022/12/14 12:59:23;;;;;;;5.10;4.38;;;26.10;93.70;;;;;;4984216;28;20099;-52
2022/12/14 13:01:54;;;;;;;5.25;4.75;;;26.10;93.70;;;;;;4983789;28;20027;-52
2022/12/14 13:04:40;;;;;;;5.47;4.97;;;26.10;93.70;;;;;;4984138;28;20031;-53
2022/12/14 13:07:20;;;;;;;5.80;4.80;;;26.10;93.70;;;;;;4979330;28;20058;-52
2022/12/14 13:09:56;;;;;;;5.43;4.88;;;26.10;93.60;;;;;;4973563;28;20250;-52
2022/12/14 13:12:47;;;;;;;5.57;4.95;;;26.10;93.60;;;;;;4964501;29;20047;-52
2022/12/14 13:15:25;;;;;;;4.90;4.40;;;26.20;93.60;;;;;;4964259;29;20070;-53
2022/12/14 13:18:01;;;;;;;5.10;4.60;;;26.20;93.60;;;;;;4969369;28;20030;-54
2022/12/14 13:20:33;;;;;;;4.80;4.40;;;26.20;93.60;;;;;;4969027;28;20234;-52
2022/12/14 13:23:01;;;;;;;;;;;26.20;93.70;;;;;;4964795;28;20039;-52
2022/12/14 13:25:42;;;;;;;7.80;4.20;;;26.20;93.60;;;;;;4964210;28;19913;-53
2022/12/14 13:28:14;;;;;;;5.10;4.60;;;26.20;93.70;;;;;;4964193;28;20228;-53
2022/12/14 13:31:01;;;;;;;6.10;4.63;;;26.20;93.70;;;;;;4964143;28;20371;-51
2022/12/14 13:33:38;;;;;;;6.38;5.03;;;26.30;93.90;;;;;;4964339;28;20036;-52
2022/12/14 13:36:30;;;;;;;11.02;5.13;;;26.20;94.10;;;;;;4964804;28;20070;-55